This demonstration page uses our WeatherBlox Daily Observations layout. Learn more.

41.55636, -103.73856

Hourly Observations for December 10, 2015

Temp ( °F °C ) Dew Point ( °F °C ) Humidity (%) Winds ( mph kmh ) Pressure ( in mb ) Visibility ( mi km ) Precip ( " mm )
12:53 am 00:53 undefined N/A N/A N/A undefined N/A N/A N/A 0 0
1:53 am 01:53 undefined N/A N/A N/A undefined N/A N/A N/A 0 0
3:53 am 03:53 Clear 36 2 28 -2 75 75 W 10 17 29.88 1012 10 16.09344 0 0
4:53 am 04:53 Clear 32 0 28 -2 87 87 WNW 5 7 29.91 1013 10 16.09344 0 0
5:53 am 05:53 Clear 30 -1 27 -3 86 86 NNW 6 9 29.94 1014 10 16.09344 0 0
6:53 am 06:53 Clear 28 -2 27 -3 93 93 WNW 3 6 29.94 1014 10 16.09344 0 0
7:53 am 07:53 Sunny 30 -1 27 -3 86 86 W 9 15 29.91 1013 10 16.09344 0 0
8:53 am 08:53 Sunny 41 5 27 -3 57 57 WNW 12 19 29.8 1009 10 16.09344 0 0
9:53 am 09:53 Sunny 45 7 27 -3 49 49 NW 10 17 29.77 1008 10 16.09344 0 0
10:53 am 10:53 Sunny 48 9 25 -4 40 40 NW 9 15 29.74 1007 10 16.09344 0 0
11:53 am 11:53 Sunny 50 10 23 -5 35 35 W 7 11 29.65 1004 10 16.09344 0 0
12:53 pm 12:53 Sunny 52 11 23 -5 32 32 NW 6 9 29.59 1002 10 16.09344 0 0
1:53 pm 13:53 Sunny 52 11 23 -5 32 32 SE 3 6 29.56 1001 10 16.09344 0 0
2:53 pm 14:53 Sunny 50 10 25 -4 37 37 ESE 6 9 29.59 1002 10 16.09344 0 0
3:53 pm 15:53 Sunny 46 8 25 -4 43 43 E 8 13 29.53 1000 10 16.09344 0 0
4:53 pm 16:53 Clear 43 6 25 -4 49 49 ESE 10 17 29.56 1001 10 16.09344 0 0
5:53 pm 17:53 Clear 39 4 25 -4 56 56 ESE 12 19 29.56 1001 10 16.09344 0 0
6:53 pm 18:53 Clear 43 6 25 -4 49 49 ESE 14 22 29.5 999 10 16.09344 0 0
7:53 pm 19:53 Clear 41 5 25 -4 53 53 SE 13 20 29.53 1000 10 16.09344 0 0
8:53 pm 20:53 Clear 37 3 27 -3 65 65 E 12 19 29.56 1001 10 16.09344 0 0
9:53 pm 21:53 Clear 37 3 27 -3 65 65 E 8 13 29.5 999 10 16.09344 0 0
10:53 pm 22:53 Clear 34 1 25 -4 70 70 ENE 5 7 29.56 1001 10 16.09344 0 0
11:53 pm 23:53 Clear 30 -1 23 -5 75 75 NNW 7 11 29.62 1003 10 16.09344 0 0

Powered by AerisWeather